x

Central Dixon Entrance Buoy (46145) Wave Buoy

4:00am - Sat 28th Feb 2015 All times are PST. -8 hours from GMT.

  • Sig Wave height 3.0ft
  • Peak Period 6s
  • Wind
    13mph, 18mph gusts
  • Sea Temp 46°f
  • Air Temp 46°f
  • Sea Pressure 1026.9mb
  • Central Dixon Entrance Buoy
  • Central Dixon Entrance Buoy

More Historic Weather Station data

Upgrade to MSW Pro to gain access to the past 30 days of data for over 8000 Wavebouys and Weather Stations around the globe.

Join Pro

Comparision Forecast

View Surf forecast
   
Sat 02/28 4:00am 3ft 6s 13 18 mph 1026.9mb 46f 46f
3:00am 2.5ft 6s 11
mph
1026.9mb 46f 46f
1:00am 2.5ft 7s 11 13 mph 1026.9mb 47f 47f
12:00am 2.5ft 7s 11 13 mph 1026.8mb 47f 47f
Fri 02/27 11:00pm 2.5ft 7s 9 11 mph 1026.4mb 47f 47f
10:00pm 2.5ft 6s 11 13 mph 1026.4mb 47f 47f
9:00pm 2.5ft 6s 11 13 mph 1026.4mb 47f 48f
8:00pm 2.5ft 7s 9 11 mph 1026.2mb 47f 48f
7:00pm 2.5ft 7s 9
mph
1026.4mb 47f 47f
6:00pm 3ft 6s 9 11 mph 1026.2mb 47f 47f
5:00pm 2.5ft 7s 9 11 mph 1026.4mb 47f 48f
4:00pm 3ft 7s 9 11 mph 1026.4mb 47f 47f
3:00pm 3ft 8s 7
mph
1026.4mb 47f 47f
2:00pm 3ft 7s 9 11 mph 1026.4mb 47f 47f
12:00pm 3ft 8s 9 11 mph 1026.3mb 47f 46f
11:00am 3ft 8s 13 16 mph 1026.2mb 47f 45f
8:00am 3.5ft 7s 18 20 mph 1024.6mb 47f 46f
7:00am 4ft 10s 20 22 mph 1023.7mb 46f 45f
5:00am 4ft 4s 22 25 mph 1023.1mb 46f 46f
4:00am 4ft 4s 22 29 mph 1022.8mb 46f 46f
3:00am 4.5ft 4s 20 25 mph 1022.6mb 46f 46f
2:00am 4.5ft 10s 18 22 mph 1022.3mb 46f 46f
1:00am 4.5ft 11s 20 25 mph 1022mb 47f 46f
12:00am 4ft 11s 22 27 mph 1021.6mb 47f 46f
Thu 02/26 11:00pm 3.5ft 4s 20 25 mph 1020.9mb 47f 47f
10:00pm 3.5ft 11s 20 22 mph 1020.3mb 47f 46f
9:00pm 3.5ft 11s 20 22 mph 1020mb 47f 47f
8:00pm 2.5ft 11s 18 20 mph 1019.9mb 47f 47f
7:00pm 2.5ft 11s 13 18 mph 1019.7mb 47f 47f
6:00pm 2.5ft 8s 16 18 mph 1019.2mb 47f 47f
5:00pm 2.5ft 11s 16 18 mph 1019.3mb 47f 47f
4:00pm 2.5ft 11s 13
mph
1019.2mb 47f 46f
3:00pm 2.5ft 12s 11 13 mph 1019.3mb 47f 46f
2:00pm 3ft 11s 11 13 mph 1019.2mb 47f 46f
1:00pm 3.5ft 5s 13
mph
1019.2mb 47f 46f
12:00pm 4ft 5s 13 20 mph 1019.1mb 47f 46f
11:00am 4.5ft 4s 20 22 mph 1018.8mb 47f 45f
10:00am 5ft 4s 20 25 mph 1018.2mb 47f 44f
7:00am 6ft 5s 25 29 mph 1016.6mb 47f 44f
6:00am 6ft 6s 25 29 mph 1016.5mb 47f 44f
5:00am 6ft 5s 25 29 mph 1016.7mb 47f 44f
2:00am 3.5ft 5s 20 25 mph 1017.9mb 47f 46f
1:00am 4ft 5s 16 20 mph 1018.3mb 47f 46f
12:00am 4.5ft 5s 18 20 mph 1018.7mb 47f 46f
Wed 02/25 11:00pm 4.5ft 5s 20 22 mph 1019.1mb 47f 46f
10:00pm 4ft 5s 18 22 mph 1019.7mb 47f 46f
9:00pm 3.5ft 4s 20 25 mph 1019.8mb 47f 46f
8:00pm 3ft 4s 18 22 mph 1020.3mb 47f 46f
7:00pm 2.5ft 5s 16 18 mph 1021.2mb 47f 46f
6:00pm 3ft 5s 16 18 mph 1021.8mb 47f 45f
5:00pm 3.5ft 5s 13 18 mph 1022.4mb 47f 45f
4:00pm 3.5ft 5s 13 16 mph 1023mb 46f 46f
3:00pm 3ft 5s 16 18 mph 1023.5mb 46f 44f
2:00pm 3.5ft 5s 18 22 mph 1024.2mb 46f 44f
1:00pm 3.5ft 4s 18 22 mph 1024.2mb 46f 44f
12:00pm 2.5ft 4s 18 22 mph 1024.8mb 46f 44f
11:00am 2.5ft 3s 18 20 mph 1025.2mb 46f 45f
10:00am 2ft 3s 18 20 mph 1025.2mb 46f 45f
9:00am 2ft 11s 13 16 mph 1025mb 46f 45f
7:00am 1.6ft 11s 9 16 mph 1025.6mb 46f 45f
6:00am 2ft 10s 9 13 mph 1026.1mb 46f 45f
2:00am 2.5ft 11s 9 11 mph 1027.1mb 46f 44f
1:00am 2.5ft 10s 7
mph
1028.4mb 46f 44f
12:00am 2.5ft 10s 7 9 mph 1028.6mb 46f 45f
Tue 02/24 11:00pm 2.5ft 10s 4
mph
1028.6mb 46f 45f
10:00pm 2.5ft 10s 4
mph
1028.5mb 46f 45f
9:00pm 2.5ft 11s 2 4 mph 1028.9mb 46f 45f
8:00pm 2.5ft 10s 4 7 mph 1028.8mb 46f 45f
7:00pm 3ft 10s 9 11 mph 1029.2mb 46f 45f
6:00pm 3ft 11s 13 16 mph 1029mb 46f 45f
5:00pm 3ft 10s 13 16 mph 1029.6mb 47f 46f
4:00pm 3ft 12s 13 16 mph 1030.6mb 47f 46f
3:00pm 3.5ft 6s 11 13 mph 1030mb 47f 46f
2:00pm 3.5ft 11s 7 9 mph 1030.1mb 47f 46f